sensor_id;sensor_type;location;lat;lon;timestamp;temperature;humidity
21284;DHT22;44065;43.150;23.652;2022-07-06T00:01:38;20.80;99.90
21284;DHT22;44065;43.150;23.652;2022-07-06T00:04:04;20.80;99.90
21284;DHT22;44065;43.150;23.652;2022-07-06T00:06:31;20.70;99.90
21284;DHT22;44065;43.150;23.652;2022-07-06T00:08:57;20.60;99.90
21284;DHT22;44065;43.150;23.652;2022-07-06T00:11:23;20.60;99.90
21284;DHT22;44065;43.150;23.652;2022-07-06T00:13:49;20.50;99.90
21284;DHT22;44065;43.150;23.652;2022-07-06T00:16:15;20.40;99.90
21284;DHT22;44065;43.150;23.652;2022-07-06T00:18:41;20.30;99.90
21284;DHT22;44065;43.150;23.652;2022-07-06T00:21:07;20.20;99.90
21284;DHT22;44065;43.150;23.652;2022-07-06T00:23:33;20.20;99.90
21284;DHT22;44065;43.150;23.652;2022-07-06T00:25:59;20.20;99.90
21284;DHT22;44065;43.150;23.652;2022-07-06T00:28:25;20.20;99.90
21284;DHT22;44065;43.150;23.652;2022-07-06T00:30:51;20.10;99.90
21284;DHT22;44065;43.150;23.652;2022-07-06T00:33:17;20.10;99.90
21284;DHT22;44065;43.150;23.652;2022-07-06T00:35:43;20.10;99.90
21284;DHT22;44065;43.150;23.652;2022-07-06T00:38:09;20.00;99.90
21284;DHT22;44065;43.150;23.652;2022-07-06T00:40:35;20.00;99.90
21284;DHT22;44065;43.150;23.652;2022-07-06T00:43:00;19.90;99.90
21284;DHT22;44065;43.150;23.652;2022-07-06T00:45:27;19.90;99.90
21284;DHT22;44065;43.150;23.652;2022-07-06T00:47:53;19.90;99.90
21284;DHT22;44065;43.150;23.652;2022-07-06T00:50:19;19.90;99.90
21284;DHT22;44065;43.150;23.652;2022-07-06T00:52:55;19.90;99.90
21284;DHT22;44065;43.150;23.652;2022-07-06T00:55:24;19.80;99.90
21284;DHT22;44065;43.150;23.652;2022-07-06T00:57:50;19.80;99.90
21284;DHT22;44065;43.150;23.652;2022-07-06T01:00:18;19.80;99.90
21284;DHT22;44065;43.150;23.652;2022-07-06T01:02:45;19.70;99.90
21284;DHT22;44065;43.150;23.652;2022-07-06T01:05:15;19.60;99.90
21284;DHT22;44065;43.150;23.652;2022-07-06T01:07:43;19.60;99.90
21284;DHT22;44065;43.150;23.652;2022-07-06T01:10:11;19.60;99.90
21284;DHT22;44065;43.150;23.652;2022-07-06T01:12:39;19.60;99.90
21284;DHT22;44065;43.150;23.652;2022-07-06T01:15:07;19.60;99.90
21284;DHT22;44065;43.150;23.652;2022-07-06T01:17:34;19.60;99.90
21284;DHT22;44065;43.150;23.652;2022-07-06T01:20:13;19.60;99.90
21284;DHT22;44065;43.150;23.652;2022-07-06T01:22:39;19.60;99.90
21284;DHT22;44065;43.150;23.652;2022-07-06T01:25:06;19.50;99.90
21284;DHT22;44065;43.150;23.652;2022-07-06T01:27:36;19.40;99.90
21284;DHT22;44065;43.150;23.652;2022-07-06T01:30:08;19.40;99.90
21284;DHT22;44065;43.150;23.652;2022-07-06T01:32:34;19.40;99.90
21284;DHT22;44065;43.150;23.652;2022-07-06T01:35:01;19.30;99.90
21284;DHT22;44065;43.150;23.652;2022-07-06T01:37:27;19.30;99.90
21284;DHT22;44065;43.150;23.652;2022-07-06T01:39:53;19.30;99.90
21284;DHT22;44065;43.150;23.652;2022-07-06T01:42:19;19.30;99.90
21284;DHT22;44065;43.150;23.652;2022-07-06T01:44:45;19.30;99.90
21284;DHT22;44065;43.150;23.652;2022-07-06T01:47:11;19.30;99.90
21284;DHT22;44065;43.150;23.652;2022-07-06T01:49:37;19.30;99.90
21284;DHT22;44065;43.150;23.652;2022-07-06T01:52:03;19.30;99.90
21284;DHT22;44065;43.150;23.652;2022-07-06T01:54:29;19.40;99.90
21284;DHT22;44065;43.150;23.652;2022-07-06T01:56:55;19.30;99.90
21284;DHT22;44065;43.150;23.652;2022-07-06T01:59:21;19.30;99.90
21284;DHT22;44065;43.150;23.652;2022-07-06T02:01:46;19.30;99.90
21284;DHT22;44065;43.150;23.652;2022-07-06T02:04:12;19.40;99.90
21284;DHT22;44065;43.150;23.652;2022-07-06T02:06:38;19.40;99.90
21284;DHT22;44065;43.150;23.652;2022-07-06T02:09:04;19.30;99.90
21284;DHT22;44065;43.150;23.652;2022-07-06T02:11:30;19.30;99.90
21284;DHT22;44065;43.150;23.652;2022-07-06T02:13:56;19.30;99.90
21284;DHT22;44065;43.150;23.652;2022-07-06T02:16:21;19.30;99.90
21284;DHT22;44065;43.150;23.652;2022-07-06T02:18:47;19.30;99.90
21284;DHT22;44065;43.150;23.652;2022-07-06T02:21:13;19.20;99.90
21284;DHT22;44065;43.150;23.652;2022-07-06T02:23:39;19.20;99.90
21284;DHT22;44065;43.150;23.652;2022-07-06T02:26:05;19.20;99.90
21284;DHT22;44065;43.150;23.652;2022-07-06T02:28:31;19.10;99.90
21284;DHT22;44065;43.150;23.652;2022-07-06T02:30:57;19.10;99.90
21284;DHT22;44065;43.150;23.652;2022-07-06T02:33:23;19.10;99.90
21284;DHT22;44065;43.150;23.652;2022-07-06T02:35:49;19.10;99.90
21284;DHT22;44065;43.150;23.652;2022-07-06T02:38:14;19.10;99.90
21284;DHT22;44065;43.150;23.652;2022-07-06T02:40:40;19.10;99.90
21284;DHT22;44065;43.150;23.652;2022-07-06T02:43:06;19.10;99.90
21284;DHT22;44065;43.150;23.652;2022-07-06T02:45:33;19.00;99.90
21284;DHT22;44065;43.150;23.652;2022-07-06T02:47:59;19.00;99.90
21284;DHT22;44065;43.150;23.652;2022-07-06T02:50:25;18.90;99.90
21284;DHT22;44065;43.150;23.652;2022-07-06T02:52:51;18.90;99.90
21284;DHT22;44065;43.150;23.652;2022-07-06T02:55:17;18.90;99.90
21284;DHT22;44065;43.150;23.652;2022-07-06T02:57:43;18.80;99.90
21284;DHT22;44065;43.150;23.652;2022-07-06T03:00:10;18.80;99.90
21284;DHT22;44065;43.150;23.652;2022-07-06T03:02:36;18.80;99.90
21284;DHT22;44065;43.150;23.652;2022-07-06T03:05:03;18.80;99.90
21284;DHT22;44065;43.150;23.652;2022-07-06T03:07:29;18.80;99.90
21284;DHT22;44065;43.150;23.652;2022-07-06T03:09:55;18.80;99.90
21284;DHT22;44065;43.150;23.652;2022-07-06T03:12:21;18.80;99.90
21284;DHT22;44065;43.150;23.652;2022-07-06T03:14:47;18.70;99.90
21284;DHT22;44065;43.150;23.652;2022-07-06T03:17:12;18.70;99.90
21284;DHT22;44065;43.150;23.652;2022-07-06T03:19:38;18.80;99.90
21284;DHT22;44065;43.150;23.652;2022-07-06T03:22:04;18.80;99.90
21284;DHT22;44065;43.150;23.652;2022-07-06T03:24:30;18.80;99.90
21284;DHT22;44065;43.150;23.652;2022-07-06T03:26:56;18.80;99.90
21284;DHT22;44065;43.150;23.652;2022-07-06T03:29:22;18.90;99.90
21284;DHT22;44065;43.150;23.652;2022-07-06T03:31:48;18.90;99.90
21284;DHT22;44065;43.150;23.652;2022-07-06T03:34:14;19.00;99.90
21284;DHT22;44065;43.150;23.652;2022-07-06T03:36:40;19.10;99.90
21284;DHT22;44065;43.150;23.652;2022-07-06T03:39:06;19.20;99.90
21284;DHT22;44065;43.150;23.652;2022-07-06T03:41:32;19.40;99.90
21284;DHT22;44065;43.150;23.652;2022-07-06T03:43:58;19.50;99.90
21284;DHT22;44065;43.150;23.652;2022-07-06T03:46:24;19.60;99.90
21284;DHT22;44065;43.150;23.652;2022-07-06T03:48:50;19.80;99.90
21284;DHT22;44065;43.150;23.652;2022-07-06T03:51:16;19.90;99.90
21284;DHT22;44065;43.150;23.652;2022-07-06T03:53:42;20.20;99.90
21284;DHT22;44065;43.150;23.652;2022-07-06T03:56:08;20.40;99.90
21284;DHT22;44065;43.150;23.652;2022-07-06T03:58:53;20.60;99.90
21284;DHT22;44065;43.150;23.652;2022-07-06T04:01:18;20.80;99.90
21284;DHT22;44065;43.150;23.652;2022-07-06T04:03:44;20.90;99.90
21284;DHT22;44065;43.150;23.652;2022-07-06T04:06:10;21.00;99.90
21284;DHT22;44065;43.150;23.652;2022-07-06T04:08:36;21.20;99.90
21284;DHT22;44065;43.150;23.652;2022-07-06T04:11:02;21.20;99.90
21284;DHT22;44065;43.150;23.652;2022-07-06T04:13:28;21.20;99.90
21284;DHT22;44065;43.150;23.652;2022-07-06T04:15:54;21.40;99.90
21284;DHT22;44065;43.150;23.652;2022-07-06T04:18:20;21.60;99.90
21284;DHT22;44065;43.150;23.652;2022-07-06T04:20:46;21.90;99.90
21284;DHT22;44065;43.150;23.652;2022-07-06T04:23:15;22.10;99.90
21284;DHT22;44065;43.150;23.652;2022-07-06T04:25:41;22.10;99.90
21284;DHT22;44065;43.150;23.652;2022-07-06T04:28:07;22.10;99.90
21284;DHT22;44065;43.150;23.652;2022-07-06T04:30:33;22.00;99.90
21284;DHT22;44065;43.150;23.652;2022-07-06T04:32:59;22.00;99.90
21284;DHT22;44065;43.150;23.652;2022-07-06T04:35:25;21.90;99.90
21284;DHT22;44065;43.150;23.652;2022-07-06T04:37:50;21.60;99.90
21284;DHT22;44065;43.150;23.652;2022-07-06T04:40:16;21.50;99.90
21284;DHT22;44065;43.150;23.652;2022-07-06T04:42:43;21.40;99.90
21284;DHT22;44065;43.150;23.652;2022-07-06T04:45:09;21.40;99.90
21284;DHT22;44065;43.150;23.652;2022-07-06T04:47:35;21.40;99.90
21284;DHT22;44065;43.150;23.652;2022-07-06T04:50:02;21.40;99.90
21284;DHT22;44065;43.150;23.652;2022-07-06T04:52:28;21.50;99.90
21284;DHT22;44065;43.150;23.652;2022-07-06T04:54:56;21.50;99.90
21284;DHT22;44065;43.150;23.652;2022-07-06T04:57:23;21.50;99.90
21284;DHT22;44065;43.150;23.652;2022-07-06T04:59:51;21.60;99.90
21284;DHT22;44065;43.150;23.652;2022-07-06T05:02:18;21.90;99.90
21284;DHT22;44065;43.150;23.652;2022-07-06T05:04:44;22.50;99.90
21284;DHT22;44065;43.150;23.652;2022-07-06T05:07:10;23.60;99.90
21284;DHT22;44065;43.150;23.652;2022-07-06T05:09:35;24.50;99.90
21284;DHT22;44065;43.150;23.652;2022-07-06T05:12:02;25.50;99.90
21284;DHT22;44065;43.150;23.652;2022-07-06T05:14:28;26.50;99.90
21284;DHT22;44065;43.150;23.652;2022-07-06T05:16:53;27.70;99.90
21284;DHT22;44065;43.150;23.652;2022-07-06T05:19:19;28.70;99.90
21284;DHT22;44065;43.150;23.652;2022-07-06T05:21:45;30.10;99.90
21284;DHT22;44065;43.150;23.652;2022-07-06T05:24:11;31.10;99.90
21284;DHT22;44065;43.150;23.652;2022-07-06T05:26:37;31.70;99.90
21284;DHT22;44065;43.150;23.652;2022-07-06T05:29:03;31.60;99.90
21284;DHT22;44065;43.150;23.652;2022-07-06T05:31:29;30.40;99.90
21284;DHT22;44065;43.150;23.652;2022-07-06T05:33:54;29.00;99.90
21284;DHT22;44065;43.150;23.652;2022-07-06T05:36:20;28.00;99.90
21284;DHT22;44065;43.150;23.652;2022-07-06T05:38:46;27.20;99.90
21284;DHT22;44065;43.150;23.652;2022-07-06T05:41:12;26.70;99.90
21284;DHT22;44065;43.150;23.652;2022-07-06T05:43:38;26.10;99.90
21284;DHT22;44065;43.150;23.652;2022-07-06T05:46:04;25.50;99.90
21284;DHT22;44065;43.150;23.652;2022-07-06T05:48:30;25.20;99.90
21284;DHT22;44065;43.150;23.652;2022-07-06T05:51:14;24.80;99.90
21284;DHT22;44065;43.150;23.652;2022-07-06T05:53:40;24.50;99.90
21284;DHT22;44065;43.150;23.652;2022-07-06T05:56:06;24.50;99.90
21284;DHT22;44065;43.150;23.652;2022-07-06T05:58:32;24.30;99.90
21284;DHT22;44065;43.150;23.652;2022-07-06T06:00:58;24.40;99.90
21284;DHT22;44065;43.150;23.652;2022-07-06T06:03:24;24.30;99.90
21284;DHT22;44065;43.150;23.652;2022-07-06T06:05:50;24.10;99.90
21284;DHT22;44065;43.150;23.652;2022-07-06T06:08:16;24.10;99.90
21284;DHT22;44065;43.150;23.652;2022-07-06T06:10:42;24.20;99.90
21284;DHT22;44065;43.150;23.652;2022-07-06T06:13:08;24.40;99.90
21284;DHT22;44065;43.150;23.652;2022-07-06T06:15:34;24.70;99.90
21284;DHT22;44065;43.150;23.652;2022-07-06T06:18:01;25.10;99.90
21284;DHT22;44065;43.150;23.652;2022-07-06T06:20:27;25.50;99.90
21284;DHT22;44065;43.150;23.652;2022-07-06T06:22:58;25.70;99.90
21284;DHT22;44065;43.150;23.652;2022-07-06T06:25:39;26.00;99.90
21284;DHT22;44065;43.150;23.652;2022-07-06T06:28:09;26.20;99.90
21284;DHT22;44065;43.150;23.652;2022-07-06T06:30:36;26.20;99.90
21284;DHT22;44065;43.150;23.652;2022-07-06T06:33:08;26.20;99.90
21284;DHT22;44065;43.150;23.652;2022-07-06T06:35:34;26.10;99.90
21284;DHT22;44065;43.150;23.652;2022-07-06T06:38:00;26.00;99.90
21284;DHT22;44065;43.150;23.652;2022-07-06T06:40:25;26.00;99.90
21284;DHT22;44065;43.150;23.652;2022-07-06T06:42:51;25.80;99.90
21284;DHT22;44065;43.150;23.652;2022-07-06T06:45:17;25.70;99.90
21284;DHT22;44065;43.150;23.652;2022-07-06T06:47:43;25.50;99.90
21284;DHT22;44065;43.150;23.652;2022-07-06T06:50:09;25.30;99.90
21284;DHT22;44065;43.150;23.652;2022-07-06T06:52:35;25.10;99.90
21284;DHT22;44065;43.150;23.652;2022-07-06T06:55:01;24.90;99.90
21284;DHT22;44065;43.150;23.652;2022-07-06T06:57:27;24.90;99.90
21284;DHT22;44065;43.150;23.652;2022-07-06T06:59:54;24.70;99.90
21284;DHT22;44065;43.150;23.652;2022-07-06T07:02:20;24.70;99.90
21284;DHT22;44065;43.150;23.652;2022-07-06T07:04:46;24.70;99.90
21284;DHT22;44065;43.150;23.652;2022-07-06T07:07:12;24.70;99.90
21284;DHT22;44065;43.150;23.652;2022-07-06T07:09:38;24.70;99.90
21284;DHT22;44065;43.150;23.652;2022-07-06T07:12:04;24.80;99.90
21284;DHT22;44065;43.150;23.652;2022-07-06T07:14:30;24.90;99.90
21284;DHT22;44065;43.150;23.652;2022-07-06T07:16:56;24.90;99.90
21284;DHT22;44065;43.150;23.652;2022-07-06T07:19:22;25.10;99.90
21284;DHT22;44065;43.150;23.652;2022-07-06T07:21:48;25.10;99.90
21284;DHT22;44065;43.150;23.652;2022-07-06T07:24:14;25.20;99.90
21284;DHT22;44065;43.150;23.652;2022-07-06T07:26:40;25.30;99.90
21284;DHT22;44065;43.150;23.652;2022-07-06T07:29:05;25.40;99.90
21284;DHT22;44065;43.150;23.652;2022-07-06T07:31:31;25.50;99.90
21284;DHT22;44065;43.150;23.652;2022-07-06T07:33:57;25.60;99.90
21284;DHT22;44065;43.150;23.652;2022-07-06T07:36:25;25.60;99.90
21284;DHT22;44065;43.150;23.652;2022-07-06T07:38:51;25.60;99.90
21284;DHT22;44065;43.150;23.652;2022-07-06T07:41:17;25.60;99.90
21284;DHT22;44065;43.150;23.652;2022-07-06T07:43:43;25.60;99.90
21284;DHT22;44065;43.150;23.652;2022-07-06T07:46:09;25.70;99.90
21284;DHT22;44065;43.150;23.652;2022-07-06T07:48:35;25.80;99.90
21284;DHT22;44065;43.150;23.652;2022-07-06T07:51:01;26.10;99.90
21284;DHT22;44065;43.150;23.652;2022-07-06T07:53:27;26.20;99.90
21284;DHT22;44065;43.150;23.652;2022-07-06T07:55:53;26.40;99.90
21284;DHT22;44065;43.150;23.652;2022-07-06T07:58:19;26.40;99.90
21284;DHT22;44065;43.150;23.652;2022-07-06T08:00:45;26.40;99.90
21284;DHT22;44065;43.150;23.652;2022-07-06T08:03:12;26.30;99.90
21284;DHT22;44065;43.150;23.652;2022-07-06T08:05:38;26.20;99.90
21284;DHT22;44065;43.150;23.652;2022-07-06T08:08:04;26.10;99.90
21284;DHT22;44065;43.150;23.652;2022-07-06T08:10:30;26.10;99.90
21284;DHT22;44065;43.150;23.652;2022-07-06T08:12:56;25.90;99.90
21284;DHT22;44065;43.150;23.652;2022-07-06T08:15:22;25.90;99.90
21284;DHT22;44065;43.150;23.652;2022-07-06T08:17:48;25.90;99.90
21284;DHT22;44065;43.150;23.652;2022-07-06T08:20:14;25.80;99.90
21284;DHT22;44065;43.150;23.652;2022-07-06T08:22:41;25.70;99.90
21284;DHT22;44065;43.150;23.652;2022-07-06T08:25:07;25.70;99.90
21284;DHT22;44065;43.150;23.652;2022-07-06T08:27:34;25.70;99.90
21284;DHT22;44065;43.150;23.652;2022-07-06T08:30:00;25.80;99.90
21284;DHT22;44065;43.150;23.652;2022-07-06T08:32:26;25.90;99.90
21284;DHT22;44065;43.150;23.652;2022-07-06T08:34:52;26.10;99.90
21284;DHT22;44065;43.150;23.652;2022-07-06T08:37:18;26.10;99.90
21284;DHT22;44065;43.150;23.652;2022-07-06T08:39:45;26.00;99.90
21284;DHT22;44065;43.150;23.652;2022-07-06T08:42:12;26.00;99.90
21284;DHT22;44065;43.150;23.652;2022-07-06T08:44:40;25.90;99.90
21284;DHT22;44065;43.150;23.652;2022-07-06T08:47:07;25.90;99.90
21284;DHT22;44065;43.150;23.652;2022-07-06T08:49:34;25.80;99.90
21284;DHT22;44065;43.150;23.652;2022-07-06T08:52:04;25.80;99.90
21284;DHT22;44065;43.150;23.652;2022-07-06T08:54:30;25.70;99.90
21284;DHT22;44065;43.150;23.652;2022-07-06T08:56:57;25.60;99.90
21284;DHT22;44065;43.150;23.652;2022-07-06T08:59:23;25.50;99.90
21284;DHT22;44065;43.150;23.652;2022-07-06T09:01:49;25.40;99.90
21284;DHT22;44065;43.150;23.652;2022-07-06T09:04:16;25.30;99.90
21284;DHT22;44065;43.150;23.652;2022-07-06T09:06:44;25.20;99.90
21284;DHT22;44065;43.150;23.652;2022-07-06T09:09:18;25.10;99.90
21284;DHT22;44065;43.150;23.652;2022-07-06T09:11:44;25.00;99.90
21284;DHT22;44065;43.150;23.652;2022-07-06T09:14:10;25.00;99.90
21284;DHT22;44065;43.150;23.652;2022-07-06T09:16:36;24.90;99.90
21284;DHT22;44065;43.150;23.652;2022-07-06T09:19:02;24.90;99.90
21284;DHT22;44065;43.150;23.652;2022-07-06T09:21:30;24.90;99.90
21284;DHT22;44065;43.150;23.652;2022-07-06T09:23:59;24.80;99.90
21284;DHT22;44065;43.150;23.652;2022-07-06T09:26:26;24.70;99.90
21284;DHT22;44065;43.150;23.652;2022-07-06T09:28:52;24.40;99.90
21284;DHT22;44065;43.150;23.652;2022-07-06T09:31:20;24.20;99.90
21284;DHT22;44065;43.150;23.652;2022-07-06T09:34:06;24.10;99.90
21284;DHT22;44065;43.150;23.652;2022-07-06T09:36:44;24.00;99.90
21284;DHT22;44065;43.150;23.652;2022-07-06T09:39:23;24.00;99.90
21284;DHT22;44065;43.150;23.652;2022-07-06T09:41:55;24.00;99.90
21284;DHT22;44065;43.150;23.652;2022-07-06T09:44:29;24.00;99.90
21284;DHT22;44065;43.150;23.652;2022-07-06T09:46:57;24.00;99.90
21284;DHT22;44065;43.150;23.652;2022-07-06T09:49:23;24.00;99.90
21284;DHT22;44065;43.150;23.652;2022-07-06T09:51:56;24.00;99.90
21284;DHT22;44065;43.150;23.652;2022-07-06T09:54:22;24.00;99.90
21284;DHT22;44065;43.150;23.652;2022-07-06T09:56:50;24.00;99.90
21284;DHT22;44065;43.150;23.652;2022-07-06T09:59:21;24.10;99.90
21284;DHT22;44065;43.150;23.652;2022-07-06T10:01:50;24.00;99.90
21284;DHT22;44065;43.150;23.652;2022-07-06T10:04:16;24.10;99.90
21284;DHT22;44065;43.150;23.652;2022-07-06T10:06:44;24.20;99.90
21284;DHT22;44065;43.150;23.652;2022-07-06T10:09:11;24.30;99.90
21284;DHT22;44065;43.150;23.652;2022-07-06T10:12:12;24.30;99.90
21284;DHT22;44065;43.150;23.652;2022-07-06T10:14:32;24.40;99.90
21284;DHT22;44065;43.150;23.652;2022-07-06T10:17:00;24.50;99.90
21284;DHT22;44065;43.150;23.652;2022-07-06T10:19:28;24.60;99.90
21284;DHT22;44065;43.150;23.652;2022-07-06T10:21:57;24.60;99.90
21284;DHT22;44065;43.150;23.652;2022-07-06T10:24:24;24.70;99.90
21284;DHT22;44065;43.150;23.652;2022-07-06T10:26:51;24.80;99.90
21284;DHT22;44065;43.150;23.652;2022-07-06T10:29:18;25.00;99.90
21284;DHT22;44065;43.150;23.652;2022-07-06T10:31:46;25.10;99.90
21284;DHT22;44065;43.150;23.652;2022-07-06T10:34:13;25.20;99.90
21284;DHT22;44065;43.150;23.652;2022-07-06T10:36:42;25.40;99.90
21284;DHT22;44065;43.150;23.652;2022-07-06T10:39:09;25.50;99.90
21284;DHT22;44065;43.150;23.652;2022-07-06T10:41:54;25.60;99.90
21284;DHT22;44065;43.150;23.652;2022-07-06T10:44:24;25.80;99.90
21284;DHT22;44065;43.150;23.652;2022-07-06T10:46:58;25.90;99.90
21284;DHT22;44065;43.150;23.652;2022-07-06T10:49:24;26.00;99.90
21284;DHT22;44065;43.150;23.652;2022-07-06T10:51:50;26.10;99.90
21284;DHT22;44065;43.150;23.652;2022-07-06T10:54:18;26.20;99.90
21284;DHT22;44065;43.150;23.652;2022-07-06T10:56:49;26.20;99.90
21284;DHT22;44065;43.150;23.652;2022-07-06T10:59:23;26.10;99.90
21284;DHT22;44065;43.150;23.652;2022-07-06T11:04:34;26.10;99.90
21284;DHT22;44065;43.150;23.652;2022-07-06T11:07:07;26.10;99.90
21284;DHT22;44065;43.150;23.652;2022-07-06T11:09:35;26.10;99.90
21284;DHT22;44065;43.150;23.652;2022-07-06T11:12:14;26.20;99.90
21284;DHT22;44065;43.150;23.652;2022-07-06T11:14:40;26.30;99.90
21284;DHT22;44065;43.150;23.652;2022-07-06T11:17:10;26.30;99.90
21284;DHT22;44065;43.150;23.652;2022-07-06T11:19:36;26.40;99.90
21284;DHT22;44065;43.150;23.652;2022-07-06T11:22:09;26.50;99.90
21284;DHT22;44065;43.150;23.652;2022-07-06T11:24:38;26.60;99.90
21284;DHT22;44065;43.150;23.652;2022-07-06T11:27:04;26.70;99.90
21284;DHT22;44065;43.150;23.652;2022-07-06T11:29:33;26.80;99.90
21284;DHT22;44065;43.150;23.652;2022-07-06T11:32:06;26.90;99.90
21284;DHT22;44065;43.150;23.652;2022-07-06T11:34:37;27.00;99.90
21284;DHT22;44065;43.150;23.652;2022-07-06T11:37:12;27.00;99.90
21284;DHT22;44065;43.150;23.652;2022-07-06T11:39:40;27.00;99.90
21284;DHT22;44065;43.150;23.652;2022-07-06T11:42:07;26.90;99.90
21284;DHT22;44065;43.150;23.652;2022-07-06T11:44:34;26.90;99.90
21284;DHT22;44065;43.150;23.652;2022-07-06T11:47:01;26.90;99.90
21284;DHT22;44065;43.150;23.652;2022-07-06T11:49:30;26.90;99.90
21284;DHT22;44065;43.150;23.652;2022-07-06T11:51:56;26.90;99.90
21284;DHT22;44065;43.150;23.652;2022-07-06T11:54:24;26.70;99.90
21284;DHT22;44065;43.150;23.652;2022-07-06T11:56:58;26.60;99.90
21284;DHT22;44065;43.150;23.652;2022-07-06T11:59:29;26.50;99.90
21284;DHT22;44065;43.150;23.652;2022-07-06T12:02:03;26.50;99.90
21284;DHT22;44065;43.150;23.652;2022-07-06T12:04:30;26.30;99.90
21284;DHT22;44065;43.150;23.652;2022-07-06T12:07:06;26.10;99.90
21284;DHT22;44065;43.150;23.652;2022-07-06T12:09:38;25.90;99.90
21284;DHT22;44065;43.150;23.652;2022-07-06T12:12:07;25.70;99.90
21284;DHT22;44065;43.150;23.652;2022-07-06T12:14:35;25.60;99.90
21284;DHT22;44065;43.150;23.652;2022-07-06T12:17:07;25.60;99.90
21284;DHT22;44065;43.150;23.652;2022-07-06T12:19:34;25.50;99.90
21284;DHT22;44065;43.150;23.652;2022-07-06T12:22:00;25.50;99.90
21284;DHT22;44065;43.150;23.652;2022-07-06T12:24:31;25.50;99.90
21284;DHT22;44065;43.150;23.652;2022-07-06T12:27:05;25.60;99.90
21284;DHT22;44065;43.150;23.652;2022-07-06T12:29:35;25.60;99.90
21284;DHT22;44065;43.150;23.652;2022-07-06T12:32:00;25.60;99.90
21284;DHT22;44065;43.150;23.652;2022-07-06T12:34:28;25.60;99.90
21284;DHT22;44065;43.150;23.652;2022-07-06T12:37:05;25.50;99.90
21284;DHT22;44065;43.150;23.652;2022-07-06T12:39:39;25.30;99.90
21284;DHT22;44065;43.150;23.652;2022-07-06T12:42:06;25.20;99.90
21284;DHT22;44065;43.150;23.652;2022-07-06T12:44:32;25.00;99.90
21284;DHT22;44065;43.150;23.652;2022-07-06T12:47:06;25.00;99.90
21284;DHT22;44065;43.150;23.652;2022-07-06T12:49:33;24.90;99.90
21284;DHT22;44065;43.150;23.652;2022-07-06T12:52:09;24.80;99.90
21284;DHT22;44065;43.150;23.652;2022-07-06T12:59:36;24.70;99.90
21284;DHT22;44065;43.150;23.652;2022-07-06T13:02:03;24.70;99.90
21284;DHT22;44065;43.150;23.652;2022-07-06T13:04:31;24.70;99.90
21284;DHT22;44065;43.150;23.652;2022-07-06T13:07:01;24.80;99.90
21284;DHT22;44065;43.150;23.652;2022-07-06T13:09:28;24.80;99.90
21284;DHT22;44065;43.150;23.652;2022-07-06T13:11:54;24.90;99.90
21284;DHT22;44065;43.150;23.652;2022-07-06T13:14:19;24.90;99.90
21284;DHT22;44065;43.150;23.652;2022-07-06T13:16:47;25.00;99.90
21284;DHT22;44065;43.150;23.652;2022-07-06T13:19:13;25.20;99.90
21284;DHT22;44065;43.150;23.652;2022-07-06T13:21:39;25.20;99.90
21284;DHT22;44065;43.150;23.652;2022-07-06T13:24:05;25.30;99.90
21284;DHT22;44065;43.150;23.652;2022-07-06T13:26:32;25.40;99.90
21284;DHT22;44065;43.150;23.652;2022-07-06T13:29:03;25.60;99.90
21284;DHT22;44065;43.150;23.652;2022-07-06T13:31:30;25.70;99.90
21284;DHT22;44065;43.150;23.652;2022-07-06T13:33:56;25.80;99.90
21284;DHT22;44065;43.150;23.652;2022-07-06T13:36:23;26.00;99.90
21284;DHT22;44065;43.150;23.652;2022-07-06T13:38:49;26.10;99.90
21284;DHT22;44065;43.150;23.652;2022-07-06T13:41:15;26.20;99.90
21284;DHT22;44065;43.150;23.652;2022-07-06T13:43:41;26.20;99.90
21284;DHT22;44065;43.150;23.652;2022-07-06T13:46:08;26.20;99.90
21284;DHT22;44065;43.150;23.652;2022-07-06T13:48:36;26.30;99.90
21284;DHT22;44065;43.150;23.652;2022-07-06T13:51:02;26.30;99.90
21284;DHT22;44065;43.150;23.652;2022-07-06T13:53:28;26.30;99.90
21284;DHT22;44065;43.150;23.652;2022-07-06T13:55:55;26.40;99.90
21284;DHT22;44065;43.150;23.652;2022-07-06T13:58:21;26.50;99.90
21284;DHT22;44065;43.150;23.652;2022-07-06T14:00:47;26.60;99.90
21284;DHT22;44065;43.150;23.652;2022-07-06T14:03:13;26.70;99.90
21284;DHT22;44065;43.150;23.652;2022-07-06T14:05:39;27.00;99.90
21284;DHT22;44065;43.150;23.652;2022-07-06T14:08:05;27.10;99.90
21284;DHT22;44065;43.150;23.652;2022-07-06T14:10:31;27.20;99.90
21284;DHT22;44065;43.150;23.652;2022-07-06T14:12:57;27.30;99.90
21284;DHT22;44065;43.150;23.652;2022-07-06T14:15:23;27.40;99.90
21284;DHT22;44065;43.150;23.652;2022-07-06T14:17:49;27.60;99.90
21284;DHT22;44065;43.150;23.652;2022-07-06T14:20:15;27.70;99.90
21284;DHT22;44065;43.150;23.652;2022-07-06T14:22:41;27.90;99.90
21284;DHT22;44065;43.150;23.652;2022-07-06T14:25:08;28.00;99.90
21284;DHT22;44065;43.150;23.652;2022-07-06T14:27:34;28.10;99.90
21284;DHT22;44065;43.150;23.652;2022-07-06T14:30:01;28.20;99.90
21284;DHT22;44065;43.150;23.652;2022-07-06T14:32:27;28.20;99.90
21284;DHT22;44065;43.150;23.652;2022-07-06T14:34:52;28.20;99.90
21284;DHT22;44065;43.150;23.652;2022-07-06T14:37:18;28.20;99.90
21284;DHT22;44065;43.150;23.652;2022-07-06T14:39:44;28.20;99.90
21284;DHT22;44065;43.150;23.652;2022-07-06T14:42:14;28.10;99.90
21284;DHT22;44065;43.150;23.652;2022-07-06T14:44:40;28.10;99.90
21284;DHT22;44065;43.150;23.652;2022-07-06T14:47:06;28.10;99.90
21284;DHT22;44065;43.150;23.652;2022-07-06T14:49:32;28.10;99.90
21284;DHT22;44065;43.150;23.652;2022-07-06T14:51:58;28.00;99.90
21284;DHT22;44065;43.150;23.652;2022-07-06T14:54:25;28.00;99.90
21284;DHT22;44065;43.150;23.652;2022-07-06T14:56:51;28.00;99.90
21284;DHT22;44065;43.150;23.652;2022-07-06T14:59:18;27.90;99.90
21284;DHT22;44065;43.150;23.652;2022-07-06T15:01:44;27.90;99.90
21284;DHT22;44065;43.150;23.652;2022-07-06T15:04:10;27.80;99.90
21284;DHT22;44065;43.150;23.652;2022-07-06T15:06:37;27.80;99.90
21284;DHT22;44065;43.150;23.652;2022-07-06T15:09:03;27.80;99.90
21284;DHT22;44065;43.150;23.652;2022-07-06T15:11:33;27.90;99.90
21284;DHT22;44065;43.150;23.652;2022-07-06T15:13:59;27.90;99.90
21284;DHT22;44065;43.150;23.652;2022-07-06T15:16:25;27.90;99.90
21284;DHT22;44065;43.150;23.652;2022-07-06T15:18:51;28.00;99.90
21284;DHT22;44065;43.150;23.652;2022-07-06T15:21:18;27.90;99.90
21284;DHT22;44065;43.150;23.652;2022-07-06T15:23:44;28.00;99.90